createdAt,value
2022-12-15T00:02:21.711Z,78.03
2022-12-15T00:05:08.552Z,69.85
2022-12-15T00:07:53.888Z,68.05
2022-12-15T00:10:39.191Z,64.88
2022-12-15T00:13:29.314Z,65.35
2022-12-15T00:16:14.938Z,61.83
2022-12-15T00:18:59.827Z,63.88
2022-12-15T00:21:46.885Z,65.93
2022-12-15T00:24:32.313Z,70.30
2022-12-15T00:27:17.492Z,70.78
2022-12-15T00:30:02.675Z,71.70
2022-12-15T00:32:47.920Z,70.05
2022-12-15T00:35:33.209Z,63.53
2022-12-15T00:38:25.489Z,70.45
2022-12-15T00:40:58.838Z,69.70
2022-12-15T00:43:26.811Z,72.07
2022-12-15T00:46:11.919Z,71.90
2022-12-15T00:48:39.733Z,70.85
2022-12-15T00:51:06.836Z,67.72
2022-12-15T00:53:53.187Z,72.78
2022-12-15T00:56:38.465Z,72.53
2022-12-15T00:59:23.843Z,75.95
2022-12-15T01:02:09.070Z,73.43
2022-12-15T01:04:54.220Z,73.53
2022-12-15T01:07:39.368Z,94.53
2022-12-15T01:10:26.814Z,77.35
2022-12-15T01:13:12.180Z,78.93
2022-12-15T01:15:57.920Z,74.70
2022-12-15T01:18:43.725Z,89.10
2022-12-15T01:21:17.413Z,78.57
2022-12-15T01:23:45.078Z,86.13
2022-12-15T01:26:14.134Z,94.63
2022-12-15T01:28:41.797Z,76.82
2022-12-15T01:31:12.994Z,97.85
2022-12-15T01:33:42.551Z,98.05
2022-12-15T01:36:11.216Z,99.15
2022-12-15T01:38:38.948Z,103.20
2022-12-15T01:41:08.208Z,118.95
2022-12-15T01:43:38.939Z,82.47
2022-12-15T01:46:07.830Z,110.97
2022-12-15T01:48:40.765Z,95.55
2022-12-15T01:51:24.903Z,89.13
2022-12-15T01:53:58.844Z,90.97
2022-12-15T01:56:32.428Z,97.40
2022-12-15T01:59:05.858Z,99.22
2022-12-15T02:01:33.615Z,101.72
2022-12-15T02:04:01.838Z,93.50
2022-12-15T02:06:30.797Z,93.60
2022-12-15T02:09:01.482Z,106.80
2022-12-15T02:11:43.885Z,93.47
2022-12-15T02:14:20.724Z,100.50
2022-12-15T02:16:58.744Z,99.78
2022-12-15T02:19:54.574Z,102.97
2022-12-15T02:22:33.068Z,91.70
2022-12-15T02:25:21.938Z,95.45
2022-12-15T02:27:57.781Z,109.72
2022-12-15T02:30:36.439Z,101.18
2022-12-15T02:33:28.653Z,99.07
2022-12-15T02:36:01.091Z,98.82
2022-12-15T02:38:33.768Z,88.22
2022-12-15T02:41:03.212Z,105.80
2022-12-15T02:43:34.355Z,103.93
2022-12-15T02:46:15.712Z,94.60
2022-12-15T02:48:54.379Z,93.60
2022-12-15T02:51:35.011Z,89.32
2022-12-15T02:54:23.077Z,96.88
2022-12-15T02:57:03.905Z,92.82
2022-12-15T02:59:39.570Z,98.38
2022-12-15T03:02:10.791Z,93.22
2022-12-15T03:04:38.556Z,88.50
2022-12-15T03:07:10.155Z,91.05
2022-12-15T03:09:37.880Z,89.93
2022-12-15T03:12:05.986Z,92.97
2022-12-15T03:14:33.615Z,90.47
2022-12-15T03:17:01.352Z,90.70
2022-12-15T03:19:30.485Z,89.10
2022-12-15T03:21:58.166Z,87.15
2022-12-15T03:24:25.783Z,94.78
2022-12-15T03:26:53.410Z,88.10
2022-12-15T03:29:21.047Z,94.60
2022-12-15T03:31:50.050Z,92.63
2022-12-15T03:34:18.426Z,97.25
2022-12-15T03:36:47.783Z,103.75
2022-12-15T03:39:15.473Z,95.75
2022-12-15T03:41:43.093Z,88.18
2022-12-15T03:44:10.867Z,88.00
2022-12-15T03:46:38.486Z,93.07
2022-12-15T03:49:06.275Z,94.90
2022-12-15T03:51:33.952Z,95.75
2022-12-15T03:54:02.976Z,88.68
2022-12-15T03:56:30.651Z,84.55
2022-12-15T03:58:58.368Z,90.65
2022-12-15T04:01:29.720Z,84.13
2022-12-15T04:04:00.944Z,86.00
2022-12-15T04:06:29.691Z,81.85
2022-12-15T04:08:57.485Z,87.13
2022-12-15T04:11:26.467Z,78.57
2022-12-15T04:13:54.125Z,77.10
2022-12-15T04:16:21.830Z,83.15
2022-12-15T04:19:10.901Z,74.43
2022-12-15T04:21:37.565Z,81.10
2022-12-15T04:24:23.823Z,82.15
2022-12-15T04:27:10.258Z,78.20
2022-12-15T04:29:55.719Z,82.82
2022-12-15T04:32:41.455Z,85.85
2022-12-15T04:35:27.704Z,82.10
2022-12-15T04:38:12.887Z,80.03
2022-12-15T04:40:58.160Z,81.57
2022-12-15T04:43:44.729Z,84.32
2022-12-15T04:46:30.152Z,86.30
2022-12-15T04:49:15.181Z,87.50
2022-12-15T04:52:00.470Z,74.53
2022-12-15T04:54:45.636Z,79.72
2022-12-15T04:57:30.987Z,74.47
2022-12-15T05:00:17.589Z,69.32
2022-12-15T05:03:02.792Z,79.35
2022-12-15T05:05:48.117Z,82.10
2022-12-15T05:08:33.318Z,89.70
2022-12-15T05:11:18.553Z,89.30
2022-12-15T05:14:03.910Z,77.97
2022-12-15T05:16:50.517Z,77.57
2022-12-15T05:19:35.861Z,81.05
2022-12-15T05:22:21.242Z,76.55
2022-12-15T05:25:06.551Z,78.55
2022-12-15T05:27:51.872Z,81.85
2022-12-15T05:30:37.223Z,78.30
2022-12-15T05:33:07.044Z,80.00
2022-12-15T05:35:34.784Z,74.75
2022-12-15T05:38:02.421Z,79.15
2022-12-15T05:40:30.215Z,80.60
2022-12-15T05:42:59.059Z,67.22
2022-12-15T05:45:26.925Z,75.25
2022-12-15T05:47:55.741Z,74.55
2022-12-15T05:50:25.024Z,75.68
2022-12-15T05:52:52.841Z,81.03
2022-12-15T05:55:20.788Z,75.00
2022-12-15T05:57:52.366Z,69.22
2022-12-15T06:00:20.820Z,77.47
2022-12-15T06:02:49.765Z,70.65
2022-12-15T06:05:17.768Z,79.28
2022-12-15T06:07:46.904Z,71.47
2022-12-15T06:10:14.871Z,54.43
2022-12-15T06:12:42.516Z,73.47
2022-12-15T06:15:11.033Z,77.50
2022-12-15T06:17:38.643Z,67.18
2022-12-15T06:20:07.238Z,76.45
2022-12-15T06:22:34.933Z,69.03
2022-12-15T06:25:04.150Z,77.22
2022-12-15T06:27:31.800Z,73.87
2022-12-15T06:29:59.493Z,75.05
2022-12-15T06:32:27.182Z,71.88
2022-12-15T06:34:54.913Z,81.55
2022-12-15T06:37:22.578Z,82.68
2022-12-15T06:39:50.218Z,85.68
2022-12-15T06:42:19.167Z,73.55
2022-12-15T06:44:46.769Z,83.00
2022-12-15T06:47:18.250Z,78.75
2022-12-15T06:49:45.860Z,73.43
2022-12-15T06:52:13.555Z,77.22
2022-12-15T06:54:41.356Z,77.35
2022-12-15T06:57:08.947Z,78.00
2022-12-15T06:59:37.991Z,75.93
2022-12-15T07:02:05.996Z,68.13
2022-12-15T07:04:33.866Z,70.10
2022-12-15T07:07:01.515Z,70.50
2022-12-15T07:09:29.135Z,68.22
2022-12-15T07:11:56.803Z,63.35
2022-12-15T07:14:25.751Z,62.22
2022-12-15T07:16:55.009Z,66.07
2022-12-15T07:19:22.643Z,68.72
2022-12-15T07:21:50.428Z,63.60
2022-12-15T07:24:18.032Z,65.82
2022-12-15T07:26:46.082Z,60.13
2022-12-15T07:29:23.024Z,62.03
2022-12-15T07:31:51.278Z,56.35
2022-12-15T07:34:20.378Z,55.63
2022-12-15T07:36:52.134Z,60.03
2022-12-15T07:39:20.498Z,57.40
2022-12-15T07:41:48.351Z,60.15
2022-12-15T07:44:16.135Z,58.03
2022-12-15T07:46:46.763Z,50.28
2022-12-15T07:49:14.802Z,60.78
2022-12-15T07:51:44.005Z,54.28
2022-12-15T07:54:12.579Z,43.83
2022-12-15T07:56:40.413Z,56.72
2022-12-15T07:59:08.785Z,59.80
2022-12-15T08:01:36.741Z,52.15
2022-12-15T08:04:06.064Z,55.67
2022-12-15T08:06:33.746Z,62.15
2022-12-15T08:09:03.087Z,55.13
2022-12-15T08:11:34.420Z,58.15
2022-12-15T08:14:04.005Z,55.05
2022-12-15T08:16:34.538Z,57.58
2022-12-15T08:19:02.465Z,68.30
2022-12-15T08:21:31.149Z,58.58
2022-12-15T08:24:00.698Z,55.97
2022-12-15T08:26:31.312Z,57.17
2022-12-15T08:29:31.803Z,49.83
2022-12-15T08:31:51.568Z,55.38
2022-12-15T08:34:19.326Z,54.95
2022-12-15T08:36:47.039Z,54.25
2022-12-15T08:39:14.781Z,56.47
2022-12-15T08:41:43.823Z,55.17
2022-12-15T08:44:11.475Z,56.53
2022-12-15T08:46:39.846Z,55.60
2022-12-15T08:49:08.636Z,57.28
2022-12-15T08:51:36.303Z,61.60
2022-12-15T08:54:04.012Z,58.78
2022-12-15T08:56:31.728Z,51.45
2022-12-15T08:59:02.271Z,60.65
2022-12-15T09:01:31.871Z,54.83
2022-12-15T09:04:01.289Z,54.08
2022-12-15T09:06:30.847Z,56.70
2022-12-15T09:09:00.023Z,57.55
2022-12-15T09:11:29.103Z,40.00
2022-12-15T09:13:57.564Z,57.20
2022-12-15T09:16:30.847Z,56.47
2022-12-15T09:19:00.499Z,50.53
2022-12-15T09:21:30.574Z,55.35
2022-12-15T09:26:30.257Z,56.15
2022-12-15T09:28:58.175Z,53.45
2022-12-15T09:31:29.296Z,58.55
2022-12-15T09:33:58.752Z,54.92
2022-12-15T09:36:27.734Z,39.80
2022-12-15T09:38:55.702Z,54.33
2022-12-15T09:41:27.104Z,57.55
2022-12-15T09:43:59.216Z,56.38
2022-12-15T09:46:43.162Z,58.17
2022-12-15T09:49:19.550Z,57.58
2022-12-15T09:51:51.748Z,53.30
2022-12-15T09:54:20.684Z,56.55
2022-12-15T09:56:54.132Z,55.30
2022-12-15T09:59:31.047Z,55.08
2022-12-15T10:02:19.451Z,63.75
2022-12-15T10:04:55.709Z,54.55
2022-12-15T10:07:31.014Z,57.30
2022-12-15T10:09:58.962Z,51.95
2022-12-15T10:12:31.443Z,52.97
2022-12-15T10:15:13.711Z,50.83
2022-12-15T10:17:50.195Z,48.92
2022-12-15T10:20:21.170Z,54.97
2022-12-15T10:25:37.018Z,55.10
2022-12-15T10:28:28.686Z,49.95
2022-12-15T10:31:00.084Z,50.83
2022-12-15T10:33:36.060Z,56.10
2022-12-15T10:36:10.023Z,58.85
2022-12-15T10:38:40.383Z,59.00
2022-12-15T10:41:10.432Z,46.92
2022-12-15T10:43:40.446Z,51.00
2022-12-15T10:46:14.823Z,51.40
2022-12-15T10:48:48.571Z,52.15
2022-12-15T10:51:22.743Z,56.17
2022-12-15T10:53:54.072Z,52.17
2022-12-15T10:56:32.337Z,57.78
2022-12-15T10:59:02.775Z,54.22
2022-12-15T11:04:01.385Z,52.97
2022-12-15T11:06:32.183Z,57.63
2022-12-15T11:09:10.052Z,55.90
2022-12-15T11:12:11.895Z,48.92
2022-12-15T11:14:46.030Z,80.85
2022-12-15T11:17:18.196Z,54.80
2022-12-15T11:19:59.824Z,57.95
2022-12-15T11:22:36.541Z,55.40
2022-12-15T11:25:11.895Z,51.75
2022-12-15T11:27:44.233Z,54.03
2022-12-15T11:30:15.279Z,60.65
2022-12-15T11:32:45.653Z,49.63
2022-12-15T11:35:23.184Z,53.63
2022-12-15T11:37:57.289Z,51.13
2022-12-15T11:40:36.249Z,54.10
2022-12-15T11:43:28.257Z,50.90
2022-12-15T11:46:08.929Z,53.05
2022-12-15T11:48:50.824Z,52.10
2022-12-15T11:51:26.217Z,54.10
2022-12-15T11:54:06.578Z,49.63
2022-12-15T11:59:24.953Z,52.90
2022-12-15T12:02:05.120Z,50.20
2022-12-15T12:04:44.071Z,44.88
2022-12-15T12:07:25.351Z,50.05
2022-12-15T12:10:04.760Z,49.53
2022-12-15T12:12:39.929Z,49.83
2022-12-15T12:15:24.042Z,50.88
2022-12-15T12:17:56.513Z,52.75
2022-12-15T12:20:29.222Z,49.65
2022-12-15T12:23:03.385Z,51.60
2022-12-15T12:25:35.552Z,47.58
2022-12-15T12:28:07.888Z,47.50
2022-12-15T12:30:42.335Z,52.40
2022-12-15T12:33:17.953Z,44.38
2022-12-15T12:35:51.231Z,47.30
2022-12-15T12:38:26.010Z,50.50
2022-12-15T12:41:03.820Z,91.82
2022-12-15T12:46:26.420Z,51.38
2022-12-15T12:48:59.906Z,49.72
2022-12-15T12:51:30.719Z,51.25
2022-12-15T12:54:00.918Z,49.03
2022-12-15T12:56:36.727Z,49.30
2022-12-15T12:59:08.648Z,47.70
2022-12-15T13:01:38.366Z,52.05
2022-12-15T13:04:09.605Z,51.20
2022-12-15T13:07:01.421Z,51.83
2022-12-15T13:10:01.883Z,49.05
2022-12-15T13:15:36.182Z,48.25
2022-12-15T13:18:12.170Z,46.35
2022-12-15T13:20:41.553Z,49.95
2022-12-15T13:23:36.709Z,47.30
2022-12-15T13:26:19.149Z,48.35
2022-12-15T13:28:51.596Z,46.78
2022-12-15T13:31:42.906Z,44.30
2022-12-15T13:34:25.846Z,49.20
2022-12-15T13:37:01.703Z,50.80
2022-12-15T13:39:56.395Z,45.03
2022-12-15T13:42:48.306Z,52.60
2022-12-15T13:45:50.584Z,47.38
2022-12-15T13:48:30.859Z,49.00
2022-12-15T13:51:04.726Z,45.58
2022-12-15T13:53:39.971Z,48.45
2022-12-15T13:56:22.276Z,53.00
2022-12-15T13:58:58.537Z,51.17
2022-12-15T14:01:32.242Z,49.53
2022-12-15T14:04:08.231Z,55.00
2022-12-15T14:06:39.595Z,51.20
2022-12-15T14:09:13.526Z,52.53
2022-12-15T14:11:53.273Z,49.50
2022-12-15T14:14:26.664Z,48.88
2022-12-15T14:16:58.671Z,51.80
2022-12-15T14:19:26.935Z,47.55
2022-12-15T14:21:56.299Z,52.45
2022-12-15T14:27:24.798Z,51.17
2022-12-15T14:30:13.652Z,46.28
2022-12-15T14:32:42.622Z,53.13
2022-12-15T14:35:15.609Z,47.33
2022-12-15T14:37:43.679Z,52.70
2022-12-15T14:40:16.222Z,46.13
2022-12-15T14:42:44.496Z,49.90
2022-12-15T14:45:20.849Z,52.35
2022-12-15T14:48:13.399Z,49.92
2022-12-15T14:50:46.939Z,50.65
2022-12-15T14:53:16.848Z,47.85
2022-12-15T14:55:44.683Z,50.55
2022-12-15T14:58:30.501Z,45.42
2022-12-15T15:01:00.343Z,47.58
2022-12-15T15:03:05.025Z,51.88
2022-12-15T15:03:10.262Z,59.83
2022-12-15T15:03:14.310Z,56.58
2022-12-15T15:03:37.176Z,49.70
2022-12-15T15:06:16.582Z,48.72
2022-12-15T15:08:47.893Z,51.73
2022-12-15T15:11:25.019Z,52.75
2022-12-15T15:13:56.513Z,55.50
2022-12-15T15:16:25.750Z,52.80
2022-12-15T15:18:56.079Z,50.05
2022-12-15T15:24:00.370Z,53.30
2022-12-15T15:26:28.656Z,49.95
2022-12-15T15:28:56.791Z,49.38
2022-12-15T15:31:38.543Z,50.35
2022-12-15T15:34:08.790Z,46.65
2022-12-15T15:36:38.398Z,49.05
2022-12-15T15:39:13.073Z,53.27
2022-12-15T15:41:40.784Z,51.58
2022-12-15T15:44:14.385Z,51.65
2022-12-15T15:46:47.610Z,47.00
2022-12-15T15:49:19.070Z,53.13
2022-12-15T15:51:46.968Z,50.13
2022-12-15T15:54:17.402Z,50.33
2022-12-15T15:56:45.111Z,47.30
2022-12-15T15:59:14.311Z,48.60
2022-12-15T16:01:42.216Z,51.75
2022-12-15T16:04:11.492Z,56.95
2022-12-15T16:06:43.633Z,51.85
2022-12-15T16:09:16.680Z,59.33
2022-12-15T16:11:45.634Z,48.05
2022-12-15T16:14:14.195Z,45.83
2022-12-15T16:16:42.689Z,49.65
2022-12-15T16:19:12.000Z,48.08
2022-12-15T16:21:40.862Z,51.87
2022-12-15T16:24:12.220Z,52.00
2022-12-15T16:26:47.146Z,56.13
2022-12-15T16:29:17.467Z,57.15
2022-12-15T16:34:16.482Z,58.90
2022-12-15T16:36:45.194Z,55.42
2022-12-15T16:39:27.786Z,53.88
2022-12-15T16:41:57.029Z,57.45
2022-12-15T16:44:25.642Z,56.17
2022-12-15T16:46:53.569Z,56.40
2022-12-15T16:49:22.701Z,57.20
2022-12-15T16:51:53.377Z,55.35
2022-12-15T16:54:23.413Z,60.45
2022-12-15T16:56:52.877Z,61.85
2022-12-15T16:59:32.988Z,56.78
2022-12-15T17:02:02.165Z,60.58
2022-12-15T17:04:31.330Z,56.45
2022-12-15T17:06:59.000Z,54.65
2022-12-15T17:09:26.901Z,56.67
2022-12-15T17:11:54.658Z,55.47
2022-12-15T17:14:22.377Z,60.75
2022-12-15T17:16:50.251Z,62.42
2022-12-15T17:19:21.362Z,64.45
2022-12-15T17:21:53.950Z,61.50
2022-12-15T17:24:22.809Z,64.43
2022-12-15T17:26:50.974Z,70.00
2022-12-15T17:29:22.696Z,60.53
2022-12-15T17:31:50.403Z,62.83
2022-12-15T17:34:30.069Z,59.50
2022-12-15T17:37:00.597Z,59.65
2022-12-15T17:39:29.019Z,64.60
2022-12-15T17:42:01.359Z,64.47
2022-12-15T17:44:34.303Z,67.20
2022-12-15T17:47:04.306Z,67.82
2022-12-15T17:49:36.164Z,68.45
2022-12-15T17:52:09.087Z,62.20
2022-12-15T17:54:36.790Z,64.57
2022-12-15T17:57:04.588Z,69.57
2022-12-15T17:59:32.570Z,71.30
2022-12-15T18:02:00.272Z,70.95
2022-12-15T18:04:28.077Z,63.75
2022-12-15T18:07:01.630Z,56.08
2022-12-15T18:09:31.420Z,64.15
2022-12-15T18:11:59.384Z,60.45
2022-12-15T18:14:28.673Z,58.10
2022-12-15T18:16:56.306Z,63.70
2022-12-15T18:19:24.209Z,64.70
2022-12-15T18:21:51.867Z,62.17
2022-12-15T18:24:21.509Z,66.35
2022-12-15T18:26:50.495Z,63.80
2022-12-15T18:29:18.944Z,67.20
2022-12-15T18:31:49.404Z,63.03
2022-12-15T18:34:21.015Z,61.22
2022-12-15T18:36:48.748Z,60.22
2022-12-15T18:39:23.128Z,66.32
2022-12-15T18:41:54.623Z,63.97
2022-12-15T18:44:24.768Z,62.67
2022-12-15T18:49:23.043Z,62.78
2022-12-15T18:51:50.920Z,65.45
2022-12-15T18:54:20.970Z,70.18
2022-12-15T18:56:49.062Z,61.10
2022-12-15T18:59:19.676Z,57.25
2022-12-15T19:01:49.596Z,62.22
2022-12-15T19:04:17.324Z,57.65
2022-12-15T19:06:45.746Z,57.60
2022-12-15T19:09:16.584Z,54.50
2022-12-15T19:12:16.893Z,61.00
2022-12-15T19:17:33.988Z,57.15
2022-12-15T19:20:19.756Z,65.80
2022-12-15T19:22:48.586Z,55.17
2022-12-15T19:25:25.538Z,55.60
2022-12-15T19:27:58.689Z,59.50
2022-12-15T19:30:29.901Z,60.13
2022-12-15T19:32:57.771Z,63.65
2022-12-15T19:35:27.203Z,60.15
2022-12-15T19:37:57.879Z,61.13
2022-12-15T19:40:29.321Z,53.60
2022-12-15T19:42:58.208Z,57.40
2022-12-15T19:45:29.501Z,61.38
2022-12-15T19:47:57.402Z,60.92
2022-12-15T19:50:27.348Z,63.72
2022-12-15T19:52:57.679Z,61.78
2022-12-15T19:55:28.046Z,69.80
2022-12-15T19:57:55.684Z,61.65
2022-12-15T20:00:24.688Z,58.88
2022-12-15T20:02:55.745Z,56.40
2022-12-15T20:05:24.115Z,58.00
2022-12-15T20:07:53.356Z,54.03
2022-12-15T20:10:29.344Z,58.00
2022-12-15T20:12:57.704Z,57.08
2022-12-15T20:15:26.565Z,53.10
2022-12-15T20:17:56.565Z,50.92
2022-12-15T20:22:57.155Z,58.53
2022-12-15T20:25:27.234Z,57.78
2022-12-15T20:27:54.958Z,59.85
2022-12-15T20:30:25.024Z,64.22
2022-12-15T20:32:52.912Z,63.45
2022-12-15T20:35:23.366Z,67.40
2022-12-15T20:37:52.473Z,65.57
2022-12-15T20:40:23.799Z,64.82
2022-12-15T20:42:52.577Z,64.82
2022-12-15T20:45:23.229Z,66.45
2022-12-15T20:47:53.435Z,63.10
2022-12-15T20:52:55.466Z,66.40
2022-12-15T20:55:23.294Z,61.80
2022-12-15T20:57:51.025Z,63.60
2022-12-15T21:00:19.394Z,57.47
2022-12-15T21:02:47.808Z,58.30
2022-12-15T21:05:19.806Z,64.07
2022-12-15T21:07:50.536Z,65.53
2022-12-15T21:10:20.052Z,59.40
2022-12-15T21:12:49.595Z,54.63
2022-12-15T21:15:19.487Z,59.05
2022-12-15T21:17:57.328Z,52.28
2022-12-15T21:20:35.752Z,54.35
2022-12-15T21:23:04.726Z,55.28
2022-12-15T21:25:32.544Z,58.63
2022-12-15T21:28:00.201Z,50.40
2022-12-15T21:30:27.966Z,51.33
2022-12-15T21:32:55.694Z,57.92
2022-12-15T21:35:26.153Z,56.60
2022-12-15T21:37:56.392Z,58.83
2022-12-15T21:40:29.398Z,49.22
2022-12-15T21:42:57.998Z,49.47
2022-12-15T21:45:27.086Z,51.33
2022-12-15T21:48:12.203Z,56.20
2022-12-15T21:50:40.926Z,57.50
2022-12-15T21:53:15.779Z,56.53
2022-12-15T21:55:46.415Z,57.42
2022-12-15T21:58:20.342Z,56.15
2022-12-15T22:00:48.251Z,53.53
2022-12-15T22:03:16.017Z,57.47
2022-12-15T22:05:43.694Z,56.47
2022-12-15T22:08:17.148Z,58.90
2022-12-15T22:10:47.692Z,59.85
2022-12-15T22:13:20.470Z,52.80
2022-12-15T22:15:50.634Z,55.63
2022-12-15T22:18:22.899Z,57.60
2022-12-15T22:20:52.386Z,58.35
2022-12-15T22:23:21.299Z,57.28
2022-12-15T22:25:54.125Z,63.90
2022-12-15T22:28:25.005Z,55.65
2022-12-15T22:30:54.002Z,55.25
2022-12-15T22:33:24.573Z,61.05
2022-12-15T22:35:53.227Z,67.60
2022-12-15T22:38:24.024Z,62.20
2022-12-15T22:40:55.664Z,66.82
2022-12-15T22:43:27.263Z,60.33
2022-12-15T22:45:56.449Z,61.28
2022-12-15T22:48:32.995Z,59.77
2022-12-15T22:51:01.042Z,62.20
2022-12-15T22:53:31.789Z,68.10
2022-12-15T22:56:02.351Z,58.03
2022-12-15T22:58:36.126Z,59.10
2022-12-15T23:01:06.862Z,60.42
2022-12-15T23:03:35.598Z,57.70
2022-12-15T23:06:04.672Z,62.20
2022-12-15T23:08:32.931Z,55.78
2022-12-15T23:11:19.479Z,59.45
2022-12-15T23:13:47.117Z,57.47
2022-12-15T23:16:21.219Z,55.17
2022-12-15T23:18:50.297Z,63.20
2022-12-15T23:21:20.989Z,63.35
2022-12-15T23:23:48.932Z,54.47
2022-12-15T23:26:19.640Z,54.10
2022-12-15T23:28:47.322Z,56.13
2022-12-15T23:31:14.976Z,58.60
2022-12-15T23:33:42.895Z,56.95
2022-12-15T23:36:11.023Z,56.15
2022-12-15T23:38:39.191Z,54.08
2022-12-15T23:41:07.031Z,53.97
2022-12-15T23:43:37.673Z,57.75
2022-12-15T23:46:07.624Z,50.70
2022-12-15T23:48:38.066Z,52.10
2022-12-15T23:51:08.068Z,58.95
2022-12-15T23:53:37.105Z,58.47
2022-12-15T23:56:07.296Z,57.95
2022-12-15T23:58:37.667Z,55.80
